sensor_id;sensor_type;location;lat;lon;timestamp;temperature;humidity
20866;DHT22;10593;48.398;10.698;2022-08-11T00:01:27;23.00;38.70
20866;DHT22;10593;48.398;10.698;2022-08-11T00:03:56;23.00;38.80
20866;DHT22;10593;48.398;10.698;2022-08-11T00:06:31;23.00;38.80
20866;DHT22;10593;48.398;10.698;2022-08-11T00:09:02;23.00;38.90
20866;DHT22;10593;48.398;10.698;2022-08-11T00:11:53;23.00;38.80
20866;DHT22;10593;48.398;10.698;2022-08-11T00:14:26;22.90;38.80
20866;DHT22;10593;48.398;10.698;2022-08-11T00:16:59;22.90;38.80
20866;DHT22;10593;48.398;10.698;2022-08-11T00:19:30;22.90;38.80
20866;DHT22;10593;48.398;10.698;2022-08-11T00:21:59;22.80;38.80
20866;DHT22;10593;48.398;10.698;2022-08-11T00:24:35;22.80;38.90
20866;DHT22;10593;48.398;10.698;2022-08-11T00:27:03;22.80;39.10
20866;DHT22;10593;48.398;10.698;2022-08-11T00:29:30;22.80;39.10
20866;DHT22;10593;48.398;10.698;2022-08-11T00:31:59;22.70;39.00
20866;DHT22;10593;48.398;10.698;2022-08-11T00:34:28;22.60;39.00
20866;DHT22;10593;48.398;10.698;2022-08-11T00:37:04;22.60;39.10
20866;DHT22;10593;48.398;10.698;2022-08-11T00:39:41;22.60;39.20
20866;DHT22;10593;48.398;10.698;2022-08-11T00:42:39;22.60;39.30
20866;DHT22;10593;48.398;10.698;2022-08-11T00:45:21;22.50;39.40
20866;DHT22;10593;48.398;10.698;2022-08-11T00:48:10;22.50;39.40
20866;DHT22;10593;48.398;10.698;2022-08-11T00:51:15;22.50;39.20
20866;DHT22;10593;48.398;10.698;2022-08-11T01:00:33;22.40;39.60
20866;DHT22;10593;48.398;10.698;2022-08-11T01:03:45;22.40;39.50
20866;DHT22;10593;48.398;10.698;2022-08-11T01:06:46;22.40;39.50
20866;DHT22;10593;48.398;10.698;2022-08-11T01:12:38;22.30;39.10
20866;DHT22;10593;48.398;10.698;2022-08-11T01:15:52;22.30;39.10
20866;DHT22;10593;48.398;10.698;2022-08-11T01:53:58;22.10;38.30
20866;DHT22;10593;48.398;10.698;2022-08-11T01:59:28;22.00;38.00
20866;DHT22;10593;48.398;10.698;2022-08-11T02:02:44;22.10;38.30
20866;DHT22;10593;48.398;10.698;2022-08-11T02:08:47;22.00;38.10
20866;DHT22;10593;48.398;10.698;2022-08-11T02:11:25;22.00;38.10
20866;DHT22;10593;48.398;10.698;2022-08-11T02:17:14;22.00;38.20
20866;DHT22;10593;48.398;10.698;2022-08-11T02:20:13;22.00;38.50
20866;DHT22;10593;48.398;10.698;2022-08-11T02:23:38;22.00;38.50
20866;DHT22;10593;48.398;10.698;2022-08-11T02:32:18;21.90;38.60
20866;DHT22;10593;48.398;10.698;2022-08-11T02:41:55;21.90;38.50
20866;DHT22;10593;48.398;10.698;2022-08-11T02:45:47;21.90;38.50
20866;DHT22;10593;48.398;10.698;2022-08-11T02:51:41;21.80;38.60
20866;DHT22;10593;48.398;10.698;2022-08-11T02:54:38;21.80;38.70
20866;DHT22;10593;48.398;10.698;2022-08-11T02:57:27;21.80;39.00
20866;DHT22;10593;48.398;10.698;2022-08-11T03:00:08;21.80;39.10
20866;DHT22;10593;48.398;10.698;2022-08-11T03:11:04;21.70;39.20
20866;DHT22;10593;48.398;10.698;2022-08-11T03:23:29;21.60;39.40
20866;DHT22;10593;48.398;10.698;2022-08-11T03:26:25;21.50;39.50
20866;DHT22;10593;48.398;10.698;2022-08-11T03:32:00;21.50;39.40
20866;DHT22;10593;48.398;10.698;2022-08-11T03:34:32;21.50;39.30
20866;DHT22;10593;48.398;10.698;2022-08-11T03:46:07;21.40;39.70
20866;DHT22;10593;48.398;10.698;2022-08-11T03:49:11;21.40;39.70
20866;DHT22;10593;48.398;10.698;2022-08-11T03:52:10;21.40;39.50
20866;DHT22;10593;48.398;10.698;2022-08-11T04:01:12;21.30;39.50
20866;DHT22;10593;48.398;10.698;2022-08-11T04:20:50;21.10;40.00
20866;DHT22;10593;48.398;10.698;2022-08-11T04:33:33;21.10;40.80
20866;DHT22;10593;48.398;10.698;2022-08-11T04:36:36;21.10;40.90
20866;DHT22;10593;48.398;10.698;2022-08-11T04:39:59;21.00;40.80
20866;DHT22;10593;48.398;10.698;2022-08-11T04:46:04;21.00;41.00
20866;DHT22;10593;48.398;10.698;2022-08-11T04:52:15;21.00;40.80
20866;DHT22;10593;48.398;10.698;2022-08-11T05:01:31;21.00;40.80
20866;DHT22;10593;48.398;10.698;2022-08-11T05:16:59;21.10;40.90
20866;DHT22;10593;48.398;10.698;2022-08-11T05:19:52;21.10;41.00
20866;DHT22;10593;48.398;10.698;2022-08-11T05:22:43;21.20;41.10
20866;DHT22;10593;48.398;10.698;2022-08-11T05:25:34;21.20;41.30
20866;DHT22;10593;48.398;10.698;2022-08-11T05:28:40;21.20;41.30
20866;DHT22;10593;48.398;10.698;2022-08-11T05:31:36;21.30;41.60
20866;DHT22;10593;48.398;10.698;2022-08-11T05:34:34;21.40;41.60
20866;DHT22;10593;48.398;10.698;2022-08-11T05:37:33;21.40;41.60
20866;DHT22;10593;48.398;10.698;2022-08-11T05:40:06;21.50;41.50
20866;DHT22;10593;48.398;10.698;2022-08-11T05:43:01;21.60;41.50
20866;DHT22;10593;48.398;10.698;2022-08-11T05:46:02;21.60;41.30
20866;DHT22;10593;48.398;10.698;2022-08-11T05:48:48;21.70;41.10
20866;DHT22;10593;48.398;10.698;2022-08-11T05:51:35;21.80;41.20
20866;DHT22;10593;48.398;10.698;2022-08-11T05:54:26;21.90;41.20
20866;DHT22;10593;48.398;10.698;2022-08-11T05:57:20;22.00;41.30
20866;DHT22;10593;48.398;10.698;2022-08-11T05:59:48;22.00;41.10
20866;DHT22;10593;48.398;10.698;2022-08-11T06:02:23;22.10;41.00
20866;DHT22;10593;48.398;10.698;2022-08-11T06:04:55;22.20;41.00
20866;DHT22;10593;48.398;10.698;2022-08-11T06:07:28;22.20;40.80
20866;DHT22;10593;48.398;10.698;2022-08-11T06:10:00;22.30;40.70
20866;DHT22;10593;48.398;10.698;2022-08-11T06:12:32;22.30;40.90
20866;DHT22;10593;48.398;10.698;2022-08-11T06:15:06;22.40;40.70
20866;DHT22;10593;48.398;10.698;2022-08-11T06:17:43;22.50;40.80
20866;DHT22;10593;48.398;10.698;2022-08-11T06:20:12;22.50;40.50
20866;DHT22;10593;48.398;10.698;2022-08-11T06:22:42;22.60;40.50
20866;DHT22;10593;48.398;10.698;2022-08-11T06:25:14;22.60;40.20
20866;DHT22;10593;48.398;10.698;2022-08-11T06:27:41;22.70;40.10
20866;DHT22;10593;48.398;10.698;2022-08-11T06:30:10;22.70;40.30
20866;DHT22;10593;48.398;10.698;2022-08-11T06:32:45;22.80;40.30
20866;DHT22;10593;48.398;10.698;2022-08-11T06:35:24;22.80;40.10
20866;DHT22;10593;48.398;10.698;2022-08-11T06:41:20;22.90;40.00
20866;DHT22;10593;48.398;10.698;2022-08-11T06:44:31;23.00;40.40
20866;DHT22;10593;48.398;10.698;2022-08-11T06:47:07;23.00;40.10
20866;DHT22;10593;48.398;10.698;2022-08-11T06:49:38;23.10;40.20
20866;DHT22;10593;48.398;10.698;2022-08-11T06:52:33;23.20;40.30
20866;DHT22;10593;48.398;10.698;2022-08-11T06:55:23;23.20;40.20
20866;DHT22;10593;48.398;10.698;2022-08-11T06:58:16;23.30;40.10
20866;DHT22;10593;48.398;10.698;2022-08-11T07:01:07;23.40;39.90
20866;DHT22;10593;48.398;10.698;2022-08-11T07:03:41;23.40;40.10
20866;DHT22;10593;48.398;10.698;2022-08-11T07:06:49;23.50;39.90
20866;DHT22;10593;48.398;10.698;2022-08-11T07:13:14;23.70;39.90
20866;DHT22;10593;48.398;10.698;2022-08-11T07:15:59;23.70;39.60
20866;DHT22;10593;48.398;10.698;2022-08-11T07:18:28;23.90;39.50
20866;DHT22;10593;48.398;10.698;2022-08-11T07:21:28;23.90;39.60
20866;DHT22;10593;48.398;10.698;2022-08-11T07:24:24;23.90;39.60
20866;DHT22;10593;48.398;10.698;2022-08-11T07:27:14;24.00;39.60
20866;DHT22;10593;48.398;10.698;2022-08-11T07:30:06;24.10;39.50
20866;DHT22;10593;48.398;10.698;2022-08-11T07:32:58;24.20;39.20
20866;DHT22;10593;48.398;10.698;2022-08-11T07:35:44;24.20;39.10
20866;DHT22;10593;48.398;10.698;2022-08-11T07:38:21;24.20;38.70
20866;DHT22;10593;48.398;10.698;2022-08-11T07:41:08;24.30;38.70
20866;DHT22;10593;48.398;10.698;2022-08-11T07:43:39;24.30;38.50
20866;DHT22;10593;48.398;10.698;2022-08-11T07:46:07;24.40;38.80
20866;DHT22;10593;48.398;10.698;2022-08-11T07:48:57;24.40;38.80
20866;DHT22;10593;48.398;10.698;2022-08-11T07:51:43;24.40;38.80
20866;DHT22;10593;48.398;10.698;2022-08-11T07:54:28;24.40;38.80
20866;DHT22;10593;48.398;10.698;2022-08-11T07:56:55;24.40;38.80
20866;DHT22;10593;48.398;10.698;2022-08-11T07:59:22;24.50;38.30
20866;DHT22;10593;48.398;10.698;2022-08-11T08:02:09;24.50;38.60
20866;DHT22;10593;48.398;10.698;2022-08-11T08:04:56;24.60;38.40
20866;DHT22;10593;48.398;10.698;2022-08-11T08:07:42;24.60;38.50
20866;DHT22;10593;48.398;10.698;2022-08-11T08:10:27;24.60;38.50
20866;DHT22;10593;48.398;10.698;2022-08-11T08:13:14;24.60;38.60
20866;DHT22;10593;48.398;10.698;2022-08-11T08:15:59;24.70;38.70
20866;DHT22;10593;48.398;10.698;2022-08-11T08:18:44;24.70;38.50
20866;DHT22;10593;48.398;10.698;2022-08-11T08:21:10;24.70;38.50
20866;DHT22;10593;48.398;10.698;2022-08-11T08:23:43;24.70;38.30
20866;DHT22;10593;48.398;10.698;2022-08-11T08:26:13;24.80;38.90
20866;DHT22;10593;48.398;10.698;2022-08-11T08:29:05;24.80;38.40
20866;DHT22;10593;48.398;10.698;2022-08-11T08:31:51;24.90;38.20
20866;DHT22;10593;48.398;10.698;2022-08-11T08:34:19;24.90;37.90
20866;DHT22;10593;48.398;10.698;2022-08-11T08:36:47;24.90;37.80
20866;DHT22;10593;48.398;10.698;2022-08-11T08:39:18;24.90;37.60
20866;DHT22;10593;48.398;10.698;2022-08-11T08:41:55;25.00;38.10
20866;DHT22;10593;48.398;10.698;2022-08-11T08:44:23;25.00;37.80
20866;DHT22;10593;48.398;10.698;2022-08-11T08:46:54;25.00;37.90
20866;DHT22;10593;48.398;10.698;2022-08-11T08:49:25;25.10;38.10
20866;DHT22;10593;48.398;10.698;2022-08-11T08:52:02;25.10;38.20
20866;DHT22;10593;48.398;10.698;2022-08-11T08:54:33;25.10;37.50
20866;DHT22;10593;48.398;10.698;2022-08-11T08:57:06;25.20;37.50
20866;DHT22;10593;48.398;10.698;2022-08-11T08:59:37;25.20;37.60
20866;DHT22;10593;48.398;10.698;2022-08-11T09:02:06;25.20;37.50
20866;DHT22;10593;48.398;10.698;2022-08-11T09:04:33;25.30;37.10
20866;DHT22;10593;48.398;10.698;2022-08-11T09:07:06;25.30;37.10
20866;DHT22;10593;48.398;10.698;2022-08-11T09:09:41;25.30;36.80
20866;DHT22;10593;48.398;10.698;2022-08-11T09:12:09;25.40;36.90
20866;DHT22;10593;48.398;10.698;2022-08-11T09:14:38;25.40;36.60
20866;DHT22;10593;48.398;10.698;2022-08-11T09:17:27;25.40;36.60
20866;DHT22;10593;48.398;10.698;2022-08-11T09:20:03;25.40;36.60
20866;DHT22;10593;48.398;10.698;2022-08-11T09:22:35;25.50;35.90
20866;DHT22;10593;48.398;10.698;2022-08-11T09:25:25;25.50;36.20
20866;DHT22;10593;48.398;10.698;2022-08-11T09:28:18;25.50;36.60
20866;DHT22;10593;48.398;10.698;2022-08-11T09:30:48;25.50;36.60
20866;DHT22;10593;48.398;10.698;2022-08-11T09:33:20;25.50;35.80
20866;DHT22;10593;48.398;10.698;2022-08-11T09:35:48;25.60;35.80
20866;DHT22;10593;48.398;10.698;2022-08-11T09:38:18;25.60;35.60
20866;DHT22;10593;48.398;10.698;2022-08-11T09:41:08;25.60;35.50
20866;DHT22;10593;48.398;10.698;2022-08-11T09:43:44;25.60;35.40
20866;DHT22;10593;48.398;10.698;2022-08-11T09:46:30;25.60;35.00
20866;DHT22;10593;48.398;10.698;2022-08-11T09:48:59;25.70;35.50
20866;DHT22;10593;48.398;10.698;2022-08-11T09:51:31;25.70;35.40
20866;DHT22;10593;48.398;10.698;2022-08-11T09:54:02;25.70;35.20
20866;DHT22;10593;48.398;10.698;2022-08-11T09:56:32;25.80;35.30
20866;DHT22;10593;48.398;10.698;2022-08-11T09:59:19;25.80;35.20
20866;DHT22;10593;48.398;10.698;2022-08-11T10:01:49;25.80;34.70
20866;DHT22;10593;48.398;10.698;2022-08-11T10:04:25;25.90;34.90
20866;DHT22;10593;48.398;10.698;2022-08-11T10:06:57;25.90;34.80
20866;DHT22;10593;48.398;10.698;2022-08-11T10:12:23;26.00;34.60
20866;DHT22;10593;48.398;10.698;2022-08-11T10:15:01;26.00;34.90
20866;DHT22;10593;48.398;10.698;2022-08-11T10:17:53;26.00;34.30
20866;DHT22;10593;48.398;10.698;2022-08-11T10:20:42;26.00;34.60
20866;DHT22;10593;48.398;10.698;2022-08-11T10:23:13;26.00;34.50
20866;DHT22;10593;48.398;10.698;2022-08-11T10:25:58;26.00;35.30
20866;DHT22;10593;48.398;10.698;2022-08-11T10:28:43;26.10;34.80
20866;DHT22;10593;48.398;10.698;2022-08-11T10:31:09;26.10;34.70
20866;DHT22;10593;48.398;10.698;2022-08-11T10:33:55;26.10;34.40
20866;DHT22;10593;48.398;10.698;2022-08-11T10:36:26;26.10;34.00
20866;DHT22;10593;48.398;10.698;2022-08-11T10:38:56;26.20;34.30
20866;DHT22;10593;48.398;10.698;2022-08-11T10:41:23;26.20;35.10
20866;DHT22;10593;48.398;10.698;2022-08-11T10:44:09;26.20;34.60
20866;DHT22;10593;48.398;10.698;2022-08-11T10:46:37;26.30;34.50
20866;DHT22;10593;48.398;10.698;2022-08-11T10:49:22;26.30;34.40
20866;DHT22;10593;48.398;10.698;2022-08-11T10:51:51;26.40;33.90
20866;DHT22;10593;48.398;10.698;2022-08-11T10:54:39;26.40;33.70
20866;DHT22;10593;48.398;10.698;2022-08-11T10:57:26;26.40;33.80
20866;DHT22;10593;48.398;10.698;2022-08-11T11:00:12;26.40;33.70
20866;DHT22;10593;48.398;10.698;2022-08-11T11:02:44;26.50;33.50
20866;DHT22;10593;48.398;10.698;2022-08-11T11:05:23;26.50;33.80
20866;DHT22;10593;48.398;10.698;2022-08-11T11:08:14;26.50;33.50
20866;DHT22;10593;48.398;10.698;2022-08-11T11:11:01;26.50;33.90
20866;DHT22;10593;48.398;10.698;2022-08-11T11:13:31;26.60;34.30
20866;DHT22;10593;48.398;10.698;2022-08-11T11:16:20;26.60;34.30
20866;DHT22;10593;48.398;10.698;2022-08-11T11:19:06;26.60;34.00
20866;DHT22;10593;48.398;10.698;2022-08-11T11:21:36;26.70;34.00
20866;DHT22;10593;48.398;10.698;2022-08-11T11:24:24;26.70;33.70
20866;DHT22;10593;48.398;10.698;2022-08-11T11:27:29;26.70;33.70
20866;DHT22;10593;48.398;10.698;2022-08-11T11:30:07;26.80;33.70
20866;DHT22;10593;48.398;10.698;2022-08-11T11:35:48;26.80;33.30
20866;DHT22;10593;48.398;10.698;2022-08-11T11:38:21;26.80;33.60
20866;DHT22;10593;48.398;10.698;2022-08-11T11:40:47;26.90;33.60
20866;DHT22;10593;48.398;10.698;2022-08-11T11:43:34;26.90;32.90
20866;DHT22;10593;48.398;10.698;2022-08-11T11:46:02;26.90;33.00
20866;DHT22;10593;48.398;10.698;2022-08-11T11:48:30;27.00;33.10
20866;DHT22;10593;48.398;10.698;2022-08-11T11:50:57;27.00;32.80
20866;DHT22;10593;48.398;10.698;2022-08-11T11:53:24;27.00;32.70
20866;DHT22;10593;48.398;10.698;2022-08-11T11:55:50;27.00;32.40
20866;DHT22;10593;48.398;10.698;2022-08-11T11:58:17;27.10;31.90
20866;DHT22;10593;48.398;10.698;2022-08-11T12:01:02;27.10;32.20
20866;DHT22;10593;48.398;10.698;2022-08-11T12:03:51;27.10;32.40
20866;DHT22;10593;48.398;10.698;2022-08-11T12:06:21;27.10;32.80
20866;DHT22;10593;48.398;10.698;2022-08-11T12:08:51;27.10;32.40
20866;DHT22;10593;48.398;10.698;2022-08-11T12:11:21;27.20;32.50
20866;DHT22;10593;48.398;10.698;2022-08-11T12:14:08;27.20;32.10
20866;DHT22;10593;48.398;10.698;2022-08-11T12:16:36;27.20;32.00
20866;DHT22;10593;48.398;10.698;2022-08-11T12:19:12;27.20;32.10
20866;DHT22;10593;48.398;10.698;2022-08-11T12:21:41;27.20;31.50
20866;DHT22;10593;48.398;10.698;2022-08-11T12:24:28;27.20;32.10
20866;DHT22;10593;48.398;10.698;2022-08-11T12:27:14;27.30;32.10
20866;DHT22;10593;48.398;10.698;2022-08-11T12:29:58;27.30;32.00
20866;DHT22;10593;48.398;10.698;2022-08-11T12:32:31;27.30;31.60
20866;DHT22;10593;48.398;10.698;2022-08-11T12:34:58;27.30;31.40
20866;DHT22;10593;48.398;10.698;2022-08-11T12:37:48;27.40;32.00
20866;DHT22;10593;48.398;10.698;2022-08-11T12:40:18;27.40;32.00
20866;DHT22;10593;48.398;10.698;2022-08-11T12:43:11;27.40;31.90
20866;DHT22;10593;48.398;10.698;2022-08-11T12:46:01;27.50;31.90
20866;DHT22;10593;48.398;10.698;2022-08-11T12:48:36;27.50;31.90
20866;DHT22;10593;48.398;10.698;2022-08-11T12:51:32;27.60;31.70
20866;DHT22;10593;48.398;10.698;2022-08-11T12:54:26;27.60;31.60
20866;DHT22;10593;48.398;10.698;2022-08-11T12:57:02;27.60;31.20
20866;DHT22;10593;48.398;10.698;2022-08-11T12:59:53;27.60;31.50
20866;DHT22;10593;48.398;10.698;2022-08-11T13:02:39;27.70;31.60
20866;DHT22;10593;48.398;10.698;2022-08-11T13:05:25;27.70;31.60
20866;DHT22;10593;48.398;10.698;2022-08-11T13:07:51;27.70;31.80
20866;DHT22;10593;48.398;10.698;2022-08-11T13:10:18;27.80;31.80
20866;DHT22;10593;48.398;10.698;2022-08-11T13:13:07;27.80;31.40
20866;DHT22;10593;48.398;10.698;2022-08-11T13:15:33;27.90;31.60
20866;DHT22;10593;48.398;10.698;2022-08-11T13:18:02;27.90;31.40
20866;DHT22;10593;48.398;10.698;2022-08-11T13:20:29;27.90;30.70
20866;DHT22;10593;48.398;10.698;2022-08-11T13:22:57;27.90;30.80
20866;DHT22;10593;48.398;10.698;2022-08-11T13:25:26;28.00;30.80
20866;DHT22;10593;48.398;10.698;2022-08-11T13:27:55;28.00;31.20
20866;DHT22;10593;48.398;10.698;2022-08-11T13:30:26;28.00;30.90
20866;DHT22;10593;48.398;10.698;2022-08-11T13:33:14;28.00;30.90
20866;DHT22;10593;48.398;10.698;2022-08-11T13:35:46;28.10;30.90
20866;DHT22;10593;48.398;10.698;2022-08-11T13:38:15;28.10;30.90
20866;DHT22;10593;48.398;10.698;2022-08-11T13:40:44;28.10;30.70
20866;DHT22;10593;48.398;10.698;2022-08-11T13:43:12;28.10;30.90
20866;DHT22;10593;48.398;10.698;2022-08-11T13:45:40;28.10;30.70
20866;DHT22;10593;48.398;10.698;2022-08-11T13:48:08;28.10;30.90
20866;DHT22;10593;48.398;10.698;2022-08-11T13:50:35;28.10;30.90
20866;DHT22;10593;48.398;10.698;2022-08-11T13:53:24;28.20;30.80
20866;DHT22;10593;48.398;10.698;2022-08-11T13:55:52;28.20;30.30
20866;DHT22;10593;48.398;10.698;2022-08-11T13:58:19;28.20;30.00
20866;DHT22;10593;48.398;10.698;2022-08-11T14:00:49;28.30;30.00
20866;DHT22;10593;48.398;10.698;2022-08-11T14:03:19;28.30;30.00
20866;DHT22;10593;48.398;10.698;2022-08-11T14:05:52;28.30;30.10
20866;DHT22;10593;48.398;10.698;2022-08-11T14:08:28;28.30;29.90
20866;DHT22;10593;48.398;10.698;2022-08-11T14:11:01;28.30;30.00
20866;DHT22;10593;48.398;10.698;2022-08-11T14:13:48;28.30;29.90
20866;DHT22;10593;48.398;10.698;2022-08-11T14:19:08;28.30;29.70
20866;DHT22;10593;48.398;10.698;2022-08-11T14:21:41;28.30;29.30
20866;DHT22;10593;48.398;10.698;2022-08-11T14:24:28;28.30;29.60
20866;DHT22;10593;48.398;10.698;2022-08-11T14:26:55;28.30;29.50
20866;DHT22;10593;48.398;10.698;2022-08-11T14:29:24;28.30;29.40
20866;DHT22;10593;48.398;10.698;2022-08-11T14:31:57;28.30;29.60
20866;DHT22;10593;48.398;10.698;2022-08-11T14:34:28;28.30;29.20
20866;DHT22;10593;48.398;10.698;2022-08-11T14:37:04;28.40;29.60
20866;DHT22;10593;48.398;10.698;2022-08-11T14:39:34;28.40;29.60
20866;DHT22;10593;48.398;10.698;2022-08-11T14:42:06;28.40;29.30
20866;DHT22;10593;48.398;10.698;2022-08-11T14:44:56;28.40;28.90
20866;DHT22;10593;48.398;10.698;2022-08-11T14:47:43;28.40;29.00
20866;DHT22;10593;48.398;10.698;2022-08-11T14:50:15;28.40;29.00
20866;DHT22;10593;48.398;10.698;2022-08-11T14:52:54;28.40;29.00
20866;DHT22;10593;48.398;10.698;2022-08-11T14:55:23;28.40;28.50
20866;DHT22;10593;48.398;10.698;2022-08-11T14:58:13;28.40;28.20
20866;DHT22;10593;48.398;10.698;2022-08-11T15:00:44;28.50;28.30
20866;DHT22;10593;48.398;10.698;2022-08-11T15:03:12;28.40;28.60
20866;DHT22;10593;48.398;10.698;2022-08-11T15:06:05;28.40;28.60
20866;DHT22;10593;48.398;10.698;2022-08-11T15:08:34;28.50;28.40
20866;DHT22;10593;48.398;10.698;2022-08-11T15:11:28;28.50;28.40
20866;DHT22;10593;48.398;10.698;2022-08-11T15:14:14;28.50;28.50
20866;DHT22;10593;48.398;10.698;2022-08-11T15:17:05;28.50;28.50
20866;DHT22;10593;48.398;10.698;2022-08-11T15:19:32;28.50;28.50
20866;DHT22;10593;48.398;10.698;2022-08-11T15:21:59;28.50;28.60
20866;DHT22;10593;48.398;10.698;2022-08-11T15:24:44;28.50;28.50
20866;DHT22;10593;48.398;10.698;2022-08-11T15:27:18;28.50;28.60
20866;DHT22;10593;48.398;10.698;2022-08-11T15:30:04;28.50;28.40
20866;DHT22;10593;48.398;10.698;2022-08-11T15:32:50;28.50;28.30
20866;DHT22;10593;48.398;10.698;2022-08-11T15:35:37;28.50;28.20
20866;DHT22;10593;48.398;10.698;2022-08-11T15:38:23;28.50;28.50
20866;DHT22;10593;48.398;10.698;2022-08-11T15:40:51;28.50;28.70
20866;DHT22;10593;48.398;10.698;2022-08-11T15:43:42;28.50;28.10
20866;DHT22;10593;48.398;10.698;2022-08-11T15:46:49;28.50;27.80
20866;DHT22;10593;48.398;10.698;2022-08-11T15:49:33;28.50;28.20
20866;DHT22;10593;48.398;10.698;2022-08-11T15:52:10;28.50;28.00
20866;DHT22;10593;48.398;10.698;2022-08-11T15:54:43;28.50;27.80
20866;DHT22;10593;48.398;10.698;2022-08-11T15:57:12;28.50;28.10
20866;DHT22;10593;48.398;10.698;2022-08-11T16:00:03;28.50;28.00
20866;DHT22;10593;48.398;10.698;2022-08-11T16:02:50;28.50;27.90
20866;DHT22;10593;48.398;10.698;2022-08-11T16:05:21;28.50;27.60
20866;DHT22;10593;48.398;10.698;2022-08-11T16:07:48;28.50;27.80
20866;DHT22;10593;48.398;10.698;2022-08-11T16:10:19;28.60;27.80
20866;DHT22;10593;48.398;10.698;2022-08-11T16:12:53;28.60;27.40
20866;DHT22;10593;48.398;10.698;2022-08-11T16:15:52;28.50;27.30
20866;DHT22;10593;48.398;10.698;2022-08-11T16:21:20;28.50;27.50
20866;DHT22;10593;48.398;10.698;2022-08-11T16:23:51;28.60;27.70
20866;DHT22;10593;48.398;10.698;2022-08-11T16:26:21;28.60;27.40
20866;DHT22;10593;48.398;10.698;2022-08-11T16:28:53;28.60;27.40
20866;DHT22;10593;48.398;10.698;2022-08-11T16:31:23;28.50;27.30
20866;DHT22;10593;48.398;10.698;2022-08-11T16:33:51;28.60;27.40
20866;DHT22;10593;48.398;10.698;2022-08-11T16:36:20;28.50;27.20
20866;DHT22;10593;48.398;10.698;2022-08-11T16:39:08;28.50;27.30
20866;DHT22;10593;48.398;10.698;2022-08-11T16:41:38;28.50;26.90
20866;DHT22;10593;48.398;10.698;2022-08-11T16:44:26;28.50;26.90
20866;DHT22;10593;48.398;10.698;2022-08-11T16:47:16;28.50;27.10
20866;DHT22;10593;48.398;10.698;2022-08-11T16:49:48;28.50;27.10
20866;DHT22;10593;48.398;10.698;2022-08-11T16:52:17;28.50;27.00
20866;DHT22;10593;48.398;10.698;2022-08-11T16:54:43;28.50;27.10
20866;DHT22;10593;48.398;10.698;2022-08-11T16:57:15;28.50;27.00
20866;DHT22;10593;48.398;10.698;2022-08-11T17:00:06;28.50;27.10
20866;DHT22;10593;48.398;10.698;2022-08-11T17:02:42;28.50;26.80
20866;DHT22;10593;48.398;10.698;2022-08-11T17:05:33;28.40;26.40
20866;DHT22;10593;48.398;10.698;2022-08-11T17:08:29;28.40;26.30
20866;DHT22;10593;48.398;10.698;2022-08-11T17:11:19;28.40;26.20
20866;DHT22;10593;48.398;10.698;2022-08-11T17:14:15;28.40;26.30
20866;DHT22;10593;48.398;10.698;2022-08-11T17:16:52;28.40;26.30
20866;DHT22;10593;48.398;10.698;2022-08-11T17:19:24;28.40;26.30
20866;DHT22;10593;48.398;10.698;2022-08-11T17:21:56;28.40;26.20
20866;DHT22;10593;48.398;10.698;2022-08-11T17:24:43;28.40;26.30
20866;DHT22;10593;48.398;10.698;2022-08-11T17:27:14;28.40;26.40
20866;DHT22;10593;48.398;10.698;2022-08-11T17:29:51;28.40;26.50
20866;DHT22;10593;48.398;10.698;2022-08-11T17:32:36;28.30;26.60
20866;DHT22;10593;48.398;10.698;2022-08-11T17:35:27;28.40;26.70
20866;DHT22;10593;48.398;10.698;2022-08-11T17:40:29;28.30;26.90
20866;DHT22;10593;48.398;10.698;2022-08-11T17:42:59;28.30;26.80
20866;DHT22;10593;48.398;10.698;2022-08-11T17:45:47;28.30;26.80
20866;DHT22;10593;48.398;10.698;2022-08-11T17:48:41;28.30;26.70
20866;DHT22;10593;48.398;10.698;2022-08-11T17:51:11;28.30;26.70
20866;DHT22;10593;48.398;10.698;2022-08-11T17:54:03;28.30;26.60
20866;DHT22;10593;48.398;10.698;2022-08-11T17:56:51;28.20;26.50
20866;DHT22;10593;48.398;10.698;2022-08-11T17:59:38;28.20;26.50
20866;DHT22;10593;48.398;10.698;2022-08-11T18:02:38;28.20;26.70
20866;DHT22;10593;48.398;10.698;2022-08-11T18:05:28;28.20;26.80
20866;DHT22;10593;48.398;10.698;2022-08-11T18:07:57;28.20;26.90
20866;DHT22;10593;48.398;10.698;2022-08-11T18:10:45;28.10;27.10
20866;DHT22;10593;48.398;10.698;2022-08-11T18:13:33;28.10;27.10
20866;DHT22;10593;48.398;10.698;2022-08-11T18:16:21;28.10;27.40
20866;DHT22;10593;48.398;10.698;2022-08-11T18:19:06;28.00;27.40
20866;DHT22;10593;48.398;10.698;2022-08-11T18:21:56;28.00;27.60
20866;DHT22;10593;48.398;10.698;2022-08-11T18:25:06;28.00;27.50
20866;DHT22;10593;48.398;10.698;2022-08-11T18:27:55;27.90;27.60
20866;DHT22;10593;48.398;10.698;2022-08-11T18:30:44;27.90;27.40
20866;DHT22;10593;48.398;10.698;2022-08-11T18:33:42;27.90;27.30
20866;DHT22;10593;48.398;10.698;2022-08-11T18:36:30;27.80;27.40
20866;DHT22;10593;48.398;10.698;2022-08-11T18:39:21;27.80;27.40
20866;DHT22;10593;48.398;10.698;2022-08-11T18:42:13;27.80;27.60
20866;DHT22;10593;48.398;10.698;2022-08-11T18:45:08;27.80;27.90
20866;DHT22;10593;48.398;10.698;2022-08-11T18:48:00;27.70;28.10
20866;DHT22;10593;48.398;10.698;2022-08-11T18:50:51;27.70;28.20
20866;DHT22;10593;48.398;10.698;2022-08-11T18:53:41;27.60;28.10
20866;DHT22;10593;48.398;10.698;2022-08-11T18:56:29;27.60;28.20
20866;DHT22;10593;48.398;10.698;2022-08-11T18:59:17;27.50;28.30
20866;DHT22;10593;48.398;10.698;2022-08-11T19:02:05;27.50;28.30
20866;DHT22;10593;48.398;10.698;2022-08-11T19:04:49;27.50;28.30
20866;DHT22;10593;48.398;10.698;2022-08-11T19:07:36;27.40;28.30
20866;DHT22;10593;48.398;10.698;2022-08-11T19:10:22;27.40;28.30
20866;DHT22;10593;48.398;10.698;2022-08-11T19:13:09;27.40;28.60
20866;DHT22;10593;48.398;10.698;2022-08-11T19:15:55;27.30;29.20
20866;DHT22;10593;48.398;10.698;2022-08-11T19:18:40;27.30;28.70
20866;DHT22;10593;48.398;10.698;2022-08-11T19:21:27;27.20;28.70
20866;DHT22;10593;48.398;10.698;2022-08-11T19:24:12;27.20;28.70
20866;DHT22;10593;48.398;10.698;2022-08-11T19:26:59;27.20;28.70
20866;DHT22;10593;48.398;10.698;2022-08-11T19:29:44;27.10;28.60
20866;DHT22;10593;48.398;10.698;2022-08-11T19:32:29;27.10;28.70
20866;DHT22;10593;48.398;10.698;2022-08-11T19:35:15;27.00;29.00
20866;DHT22;10593;48.398;10.698;2022-08-11T19:38:02;27.00;29.00
20866;DHT22;10593;48.398;10.698;2022-08-11T19:40:48;26.90;29.10